Time;durP1;ratioP1;P1;durP2;ratioP2;P2;SDS_P1;SDS_P2;PMS_P1;PMS_P2;Temp;Humidity;BMP_temperature;BMP_pressure;BME280_temperature;BME280_humidity;BME280_pressure;Samples;Min_cycle;Max_cycle;Signal;HPM_P1;HPM_P2
2022/12/21 00:01:22;;;;;;;25.02;11.08;;;;;;;-0.40;82.16;98775.07;1667303;84;25668;-63
2022/12/21 00:03:56;;;;;;;29.90;11.75;;;;;;;-0.38;82.25;98776.18;1692096;84;25849;-63
2022/12/21 00:06:25;;;;;;;37.33;19.48;;;;;;;-0.37;82.21;98757.64;1690334;84;25696;-62
2022/12/21 00:08:54;;;;;;;42.45;16.90;;;;;;;-0.37;82.20;98753.60;1667609;84;27260;-62
2022/12/21 00:11:22;;;;;;;28.57;11.25;;;;;;;-0.34;82.12;98745.56;1690527;84;25719;-62
2022/12/21 00:13:49;;;;;;;39.65;15.23;;;;;;;-0.34;82.10;98756.34;1690619;84;25612;-63
2022/12/21 00:16:20;;;;;;;28.40;10.90;;;;;;;-0.33;82.14;98745.84;1667837;84;26663;-64
2022/12/21 00:18:47;;;;;;;32.55;12.98;;;;;;;-0.33;82.19;98739.11;1691049;84;25652;-62
2022/12/21 00:21:20;;;;;;;29.70;12.45;;;;;;;-0.32;82.16;98742.12;1690577;84;27327;-66
2022/12/21 00:23:49;;;;;;;29.82;12.95;;;;;;;-0.32;82.18;98745.61;1680906;84;25637;-63
2022/12/21 00:26:19;;;;;;;41.28;20.05;;;;;;;-0.32;82.14;98755.58;1668020;84;25564;-62
2022/12/21 00:28:47;;;;;;;31.87;13.00;;;;;;;-0.36;82.07;98744.45;1691044;84;27196;-66
2022/12/21 00:31:20;;;;;;;31.17;13.68;;;;;;;-0.36;82.00;98752.53;1667714;84;25678;-62
2022/12/21 00:33:47;;;;;;;36.53;13.80;;;;;;;-0.36;81.94;98759.27;1689990;84;27393;-66
2022/12/21 00:36:17;;;;;;;34.10;14.13;;;;;;;-0.40;82.00;98769.69;1667617;84;25476;-64
2022/12/21 00:38:44;;;;;;;32.35;13.48;;;;;;;-0.41;81.97;98776.66;1668197;84;25760;-66
2022/12/21 00:41:14;;;;;;;28.00;11.25;;;;;;;-0.45;81.96;98768.26;1645361;84;26346;-66
2022/12/21 00:43:42;;;;;;;34.08;13.28;;;;;;;-0.47;81.90;98764.97;1667932;84;25492;-62
2022/12/21 00:46:19;;;;;;;28.92;12.33;;;;;;;-0.51;81.87;98749.81;1643040;84;28313;-67
2022/12/21 00:48:45;;;;;;;31.75;13.38;;;;;;;-0.52;81.81;98760.82;1704387;84;25593;-62
2022/12/21 00:51:15;;;;;;;34.78;14.20;;;;;;;-0.55;81.86;98760.77;1680634;84;25616;-61
2022/12/21 00:53:42;;;;;;;38.95;14.13;;;;;;;-0.58;81.87;98751.83;1680232;84;25696;-64
2022/12/21 00:56:09;;;;;;;35.38;13.45;;;;;;;-0.61;81.92;98757.69;1688399;84;25669;-61
2022/12/21 00:58:36;;;;;;;33.75;13.53;;;;;;;-0.65;81.94;98762.74;1643065;84;27429;-61
2022/12/21 01:01:11;;;;;;;36.00;13.53;;;;;;;-0.67;82.07;98751.91;1688204;84;25475;-62
2022/12/21 01:03:37;;;;;;;36.63;14.25;;;;;;;-0.71;82.14;98754.79;1687277;84;25697;-65
2022/12/21 01:06:04;;;;;;;30.68;13.70;;;;;;;-0.76;82.18;98759.02;1665148;84;26364;-60
2022/12/21 01:08:30;;;;;;;32.28;13.70;;;;;;;-0.77;82.21;98744.45;1680418;84;25656;-61
2022/12/21 01:10:59;;;;;;;32.53;14.35;;;;;;;-0.79;82.22;98748.72;1665118;84;27413;-61
2022/12/21 01:13:26;;;;;;;35.50;14.85;;;;;;;-0.81;82.19;98736.56;1665573;84;25929;-63
2022/12/21 01:15:53;;;;;;;29.60;12.88;;;;;;;-0.83;82.23;98730.08;1665723;84;25765;-61
2022/12/21 01:18:19;;;;;;;35.23;13.35;;;;;;;-0.86;82.23;98711.72;1688601;84;25853;-61
2022/12/21 01:20:49;;;;;;;27.07;11.30;;;;;;;-0.89;82.36;98710.30;1704295;84;25418;-61
2022/12/21 01:23:16;;;;;;;31.20;12.20;;;;;;;-0.90;82.47;98729.36;1688950;84;27324;-62
2022/12/21 01:25:44;;;;;;;24.23;10.68;;;;;;;-0.91;82.71;98733.12;1665341;84;25562;-62
2022/12/21 01:28:10;;;;;;;26.97;11.97;;;;;;;-0.91;82.92;98731.25;1688707;84;25195;-61
2022/12/21 01:30:38;;;;;;;31.62;13.03;;;;;;;-0.91;82.85;98739.33;1688263;84;26421;-61
2022/12/21 01:33:10;;;;;;;29.63;12.73;;;;;;;-0.90;82.89;98736.09;1688581;84;25427;-61
2022/12/21 01:35:42;;;;;;;28.85;12.28;;;;;;;-0.89;82.89;98739.89;1667175;84;27468;-64
2022/12/21 01:38:10;;;;;;;32.53;14.23;;;;;;;-0.90;82.99;98726.16;1704483;84;25645;-60
2022/12/21 01:40:37;;;;;;;29.70;13.40;;;;;;;-0.91;82.89;98728.56;1688351;84;25601;-61
2022/12/21 01:43:18;;;;;;;31.25;13.50;;;;;;;-0.91;82.99;98739.84;1665100;84;27911;-61
2022/12/21 01:45:49;;;;;;;32.38;13.88;;;;;;;-0.92;83.05;98734.19;1680881;84;25471;-66
2022/12/21 01:48:18;;;;;;;27.70;13.03;;;;;;;-0.93;83.06;98736.56;1704533;83;27429;-66
2022/12/21 01:51:01;;;;;;;25.45;11.88;;;;;;;-0.93;83.15;98723.11;1643198;84;26561;-60
2022/12/21 01:53:32;;;;;;;29.05;12.23;;;;;;;-0.93;83.28;98702.41;1688321;84;25533;-63
2022/12/21 01:56:03;;;;;;;28.60;12.63;;;;;;;-0.92;83.15;98711.31;1688547;84;26401;-62
2022/12/21 01:58:31;;;;;;;30.62;12.88;;;;;;;-0.93;83.19;98714.52;1704619;84;25817;-61
2022/12/21 02:00:59;;;;;;;29.18;12.35;;;;;;;-0.94;83.12;98725.00;1665535;84;27546;-65
2022/12/21 02:03:37;;;;;;;25.50;11.20;;;;;;;-0.94;83.20;98712.06;1688414;84;25261;-62
2022/12/21 02:06:10;;;;;;;25.88;11.33;;;;;;;-0.93;83.20;98700.23;1685354;84;25732;-60
2022/12/21 02:08:37;;;;;;;19.60;8.30;;;;;;;-0.94;83.23;98691.38;1688234;84;25697;-61
2022/12/21 02:11:05;;;;;;;28.30;11.25;;;;;;;-0.94;83.22;98691.89;1688472;84;25658;-61
2022/12/21 02:13:31;;;;;;;29.82;12.50;;;;;;;-0.93;83.14;98676.86;1688243;84;27130;-60
2022/12/21 02:16:30;;;;;;;27.75;12.10;;;;;;;-0.93;83.02;98670.13;1665051;84;25722;-61
2022/12/21 02:19:05;;;;;;;28.62;11.90;;;;;;;-0.91;82.92;98653.75;1688168;84;25455;-62
2022/12/21 02:21:39;;;;;;;27.60;11.28;;;;;;;-0.92;82.96;98668.27;1704151;84;25686;-61
2022/12/21 02:24:37;;;;;;;29.65;12.43;;;;;;;-0.94;83.03;98666.33;1704123;83;25457;-62
2022/12/21 02:27:41;;;;;;;24.35;10.58;;;;;;;-0.94;83.03;98669.85;1656891;86;29598;-61
2022/12/21 02:30:22;;;;;;;30.30;11.25;;;;;;;-0.97;83.13;98670.32;1634698;86;25770;-61
2022/12/21 02:33:17;;;;;;;26.80;9.23;;;;;;;-1.00;83.30;98674.83;1654754;86;25705;-66
2022/12/21 02:36:15;;;;;;;23.92;10.63;;;;;;;-0.99;83.46;98674.28;1600781;89;25826;-61
2022/12/21 02:39:06;;;;;;;21.35;10.23;;;;;;;-0.98;83.46;98671.36;1600692;89;25844;-63
2022/12/21 02:42:00;;;;;;;27.93;11.40;;;;;;;-0.97;83.47;98670.84;1600651;89;27593;-62
2022/12/21 02:44:55;;;;;;;28.30;11.65;;;;;;;-0.96;83.34;98679.19;1600354;89;25848;-65
2022/12/21 02:47:41;;;;;;;32.48;12.33;;;;;;;-0.96;83.35;98680.02;1600558;89;25807;-62
2022/12/21 02:50:12;;;;;;;28.38;12.37;;;;;;;-0.96;83.23;98671.12;1579388;89;25851;-66
2022/12/21 02:53:05;;;;;;;24.32;10.08;;;;;;;-0.96;83.19;98672.47;1600547;89;25717;-67
2022/12/21 02:55:30;;;;;;;27.67;11.97;;;;;;;-0.97;83.50;98666.80;1600616;89;28464;-66
2022/12/21 02:58:19;;;;;;;28.15;11.63;;;;;;;-0.96;83.31;98677.33;1579926;89;25758;-66
2022/12/21 03:00:56;;;;;;;25.95;11.70;;;;;;;-0.95;83.34;98676.27;1600633;89;25702;-67
2022/12/21 03:03:48;;;;;;;28.05;11.78;;;;;;;-0.96;83.40;98673.30;1619399;86;26570;-65
2022/12/21 03:06:53;;;;;;;25.43;11.75;;;;;;;-0.96;83.68;98673.30;1606808;88;25743;-68
2022/12/21 03:09:58;;;;;;;25.62;11.00;;;;;;;-0.97;83.88;98677.56;1626234;88;28559;-64
2022/12/21 03:13:08;;;;;;;29.52;12.43;;;;;;;-0.97;84.02;98667.63;1626711;88;25676;-66
2022/12/21 03:16:14;;;;;;;25.85;11.90;;;;;;;-0.96;84.05;98666.56;1626216;88;25724;-66
2022/12/21 03:19:07;;;;;;;30.75;13.75;;;;;;;-0.97;84.21;98671.67;1626326;88;26238;-60
2022/12/21 03:21:59;;;;;;;30.37;12.00;;;;;;;-0.96;84.13;98668.43;1602634;88;25781;-60
2022/12/21 03:24:51;;;;;;;28.15;12.30;;;;;;;-0.94;84.43;98660.95;1626515;88;27570;-61
2022/12/21 03:27:25;;;;;;;27.65;12.05;;;;;;;-0.93;84.54;98662.58;1626198;88;25748;-60
2022/12/21 03:29:57;;;;;;;24.15;10.32;;;;;;;-0.93;84.54;98653.98;1626709;88;25698;-61
2022/12/21 03:32:35;;;;;;;23.98;10.43;;;;;;;-0.89;84.68;98663.76;1624814;88;25782;-61
2022/12/21 03:35:05;;;;;;;21.00;10.20;;;;;;;-0.87;84.71;98658.14;1626157;88;25773;-60
2022/12/21 03:37:35;;;;;;;33.10;11.93;;;;;;;-0.86;84.72;98657.90;1626776;88;28319;-60
2022/12/21 03:40:13;;;;;;;23.18;10.55;;;;;;;-0.84;84.82;98657.66;1626384;88;25924;-66
2022/12/21 03:42:47;;;;;;;24.57;9.75;;;;;;;-0.81;84.94;98665.26;1637056;84;25554;-61
2022/12/21 03:45:24;;;;;;;27.62;12.18;;;;;;;-0.77;85.05;98678.52;1687961;84;26741;-60
2022/12/21 03:48:05;;;;;;;24.52;10.70;;;;;;;-0.75;85.01;98676.39;1687599;84;25447;-60
2022/12/21 03:50:38;;;;;;;25.62;12.20;;;;;;;-0.72;85.05;98672.42;1688328;84;27031;-66
2022/12/21 03:53:36;;;;;;;21.77;10.88;;;;;;;-0.69;85.01;98678.12;1688238;84;26191;-61
2022/12/21 03:56:07;;;;;;;18.75;9.30;;;;;;;-0.67;85.07;98663.09;1704209;83;25589;-62
2022/12/21 03:58:36;;;;;;;25.27;10.85;;;;;;;-0.60;85.28;98664.30;1704680;83;25924;-68
2022/12/21 04:01:44;;;;;;;21.27;8.80;;;;;;;-0.56;85.15;98652.81;1688300;84;25621;-62
2022/12/21 04:04:31;;;;;;;20.72;9.53;;;;;;;-0.52;85.17;98664.73;1688367;84;27301;-66
2022/12/21 04:07:02;;;;;;;22.17;10.03;;;;;;;-0.46;85.20;98670.22;1688389;84;25754;-62
2022/12/21 04:09:28;;;;;;;25.60;9.83;;;;;;;-0.42;85.23;98677.58;1704423;83;25558;-61
2022/12/21 04:14:40;;;;;;;26.42;10.38;;;;;;;-0.39;85.05;98660.11;1704157;84;25410;-62
2022/12/21 04:17:06;;;;;;;20.45;9.60;;;;;;;-0.37;85.03;98659.36;1665374;84;27273;-62
2022/12/21 04:28:07;;;;;;;27.25;11.45;;;;;;;-0.35;85.10;98663.95;1670820;84;25486;-61
2022/12/21 04:30:14;;;;;;;25.95;10.95;;;;;;;-0.37;85.08;98667.95;1643587;83;25693;-63
2022/12/21 04:32:40;;;;;;;26.15;11.45;;;;;;;-0.40;85.06;98666.02;1639779;86;25688;-61
2022/12/21 04:35:07;;;;;;;22.27;10.72;;;;;;;-0.41;85.24;98667.09;1638341;86;25760;-62
2022/12/21 04:37:35;;;;;;;25.50;11.70;;;;;;;-0.38;85.26;98672.52;1638317;86;25814;-63
2022/12/21 04:40:03;;;;;;;24.37;11.55;;;;;;;-0.37;85.18;98681.42;1638018;86;25729;-61
2022/12/21 04:42:29;;;;;;;19.70;8.45;;;;;;;-0.38;85.28;98677.90;1637696;86;28428;-63
2022/12/21 04:44:55;;;;;;;27.52;11.12;;;;;;;-0.37;85.33;98675.52;1589595;86;25934;-61
2022/12/21 04:47:21;;;;;;;26.00;11.30;;;;;;;-0.36;85.22;98678.48;1616057;86;25743;-61
2022/12/21 04:49:47;;;;;;;23.95;10.32;;;;;;;-0.33;85.25;98685.25;1594181;86;26575;-62
2022/12/21 04:52:14;;;;;;;23.57;11.10;;;;;;;-0.33;85.34;98680.70;1594238;86;25448;-61
2022/12/21 04:54:40;;;;;;;27.40;12.15;;;;;;;-0.34;85.36;98678.24;1661055;86;28510;-62
2022/12/21 04:57:06;;;;;;;25.05;11.15;;;;;;;-0.34;85.38;98680.94;1638368;86;25637;-61
2022/12/21 04:59:32;;;;;;;25.77;11.03;;;;;;;-0.34;85.45;98679.59;1573664;86;25490;-61
2022/12/21 05:01:58;;;;;;;23.10;11.12;;;;;;;-0.33;85.66;98682.05;1640287;86;25923;-61
2022/12/21 05:04:25;;;;;;;23.42;10.53;;;;;;;-0.30;85.59;98687.47;1660696;86;25729;-62
2022/12/21 05:06:51;;;;;;;21.52;9.20;;;;;;;-0.27;85.59;98689.67;1637953;86;28939;-66
2022/12/21 05:09:18;;;;;;;27.22;11.55;;;;;;;-0.24;85.65;98689.72;1660615;86;25465;-61
2022/12/21 05:11:44;;;;;;;23.85;10.48;;;;;;;-0.20;85.62;98692.23;1638352;86;25621;-61
2022/12/21 05:14:10;;;;;;;23.67;10.50;;;;;;;-0.19;85.75;98683.09;1638193;86;26822;-61
2022/12/21 05:16:38;;;;;;;30.02;12.55;;;;;;;-0.17;85.87;98687.16;1616531;86;25713;-64
2022/12/21 05:19:04;;;;;;;26.52;11.08;;;;;;;-0.14;85.75;98692.06;1638487;86;27457;-61
2022/12/21 05:21:30;;;;;;;28.12;12.07;;;;;;;-0.10;85.91;98684.84;1573796;86;25739;-61
2022/12/21 05:23:58;;;;;;;28.87;13.05;;;;;;;-0.06;85.75;98680.63;1638143;86;25578;-61
2022/12/21 05:26:24;;;;;;;26.75;11.03;;;;;;;-0.05;85.78;98671.48;1639742;86;25885;-61
2022/12/21 05:28:50;;;;;;;29.50;13.32;;;;;;;-0.03;85.90;98654.55;1615579;86;25484;-61
2022/12/21 05:31:17;;;;;;;30.35;12.65;;;;;;;0.04;85.69;98659.77;1637684;86;27308;-62
2022/12/21 05:33:44;;;;;;;31.40;13.08;;;;;;;0.06;85.66;98661.14;1638056;86;25736;-63
2022/12/21 05:36:13;;;;;;;26.73;12.18;;;;;;;0.11;85.55;98657.72;1594111;86;25533;-65
2022/12/21 05:38:40;;;;;;;24.77;11.55;;;;;;;0.14;85.54;98650.49;1638114;86;25923;-66
2022/12/21 05:41:06;;;;;;;22.60;9.83;;;;;;;0.16;85.53;98635.42;1638108;86;25800;-65
2022/12/21 05:43:33;;;;;;;25.30;11.85;;;;;;;0.14;85.63;98622.75;1637865;86;29432;-63
2022/12/21 05:46:06;;;;;;;26.45;12.07;;;;;;;0.15;85.53;98636.50;1594137;86;25703;-65
2022/12/21 05:48:33;;;;;;;25.15;11.88;;;;;;;0.16;85.62;98637.59;1637865;86;25494;-61
2022/12/21 05:51:01;;;;;;;24.85;10.35;;;;;;;0.20;85.55;98632.55;1601266;86;25693;-61
2022/12/21 05:53:28;;;;;;;27.87;12.03;;;;;;;0.23;85.47;98640.14;1616734;86;25463;-62
2022/12/21 05:55:54;;;;;;;29.32;12.98;;;;;;;0.23;85.47;98643.63;1580689;86;27261;-61
2022/12/21 05:58:21;;;;;;;32.45;13.10;;;;;;;0.27;85.42;98639.92;1637742;86;25716;-62
2022/12/21 06:00:47;;;;;;;23.12;10.53;;;;;;;0.28;85.41;98630.77;1638289;86;25704;-61
2022/12/21 06:03:14;;;;;;;31.33;13.58;;;;;;;0.29;85.44;98631.59;1638418;86;25661;-62
2022/12/21 06:05:41;;;;;;;23.87;11.25;;;;;;;0.27;85.40;98629.14;1594505;86;25695;-62
2022/12/21 06:08:09;;;;;;;30.43;13.53;;;;;;;0.27;85.45;98635.88;1615345;86;27471;-65
2022/12/21 06:10:37;;;;;;;31.27;13.70;;;;;;;0.27;85.41;98637.23;1595088;86;25679;-65
2022/12/21 06:13:04;;;;;;;34.70;14.10;;;;;;;0.29;85.40;98633.73;1594361;86;25677;-63
2022/12/21 06:15:30;;;;;;;20.23;9.50;;;;;;;0.31;85.35;98632.97;1637733;86;25693;-65
2022/12/21 06:17:57;;;;;;;25.50;10.80;;;;;;;0.31;85.42;98638.36;1638376;86;25499;-64
2022/12/21 06:20:24;;;;;;;27.87;11.88;;;;;;;0.32;85.39;98638.64;1638147;86;28614;-61
2022/12/21 06:22:50;;;;;;;26.90;11.18;;;;;;;0.35;85.28;98648.93;1638263;86;25602;-64
2022/12/21 06:25:16;;;;;;;26.75;11.33;;;;;;;0.35;85.26;98634.66;1615138;86;25746;-62
2022/12/21 06:27:43;;;;;;;25.45;12.00;;;;;;;0.31;85.33;98627.58;1638122;86;26498;-62
2022/12/21 06:30:10;;;;;;;25.65;10.23;;;;;;;0.33;85.38;98640.29;1617430;86;25475;-62
2022/12/21 06:32:37;;;;;;;26.40;10.70;;;;;;;0.33;85.39;98635.42;1610466;86;27340;-64
2022/12/21 06:35:05;;;;;;;28.07;12.80;;;;;;;0.32;85.42;98644.03;1573822;86;25730;-62
2022/12/21 06:37:31;;;;;;;29.05;12.58;;;;;;;0.33;85.36;98633.55;1610733;86;25840;-62
2022/12/21 06:39:58;;;;;;;24.75;11.78;;;;;;;0.34;85.28;98627.09;1615409;86;25907;-63
2022/12/21 06:42:24;;;;;;;27.55;12.75;;;;;;;0.36;85.30;98633.58;1573649;86;25767;-62
2022/12/21 06:44:50;;;;;;;25.55;12.25;;;;;;;0.34;85.36;98631.66;1638279;86;27459;-64
2022/12/21 06:47:16;;;;;;;22.50;9.38;;;;;;;0.32;85.42;98629.20;1573399;86;25736;-65
2022/12/21 06:49:43;;;;;;;17.82;7.80;;;;;;;0.28;85.47;98607.86;1658857;86;25680;-63
2022/12/21 06:52:10;;;;;;;29.32;12.88;;;;;;;0.26;85.51;98590.30;1589306;86;25754;-64
2022/12/21 06:54:36;;;;;;;30.90;12.70;;;;;;;0.27;85.43;98592.75;1610488;86;25712;-62
2022/12/21 06:57:02;;;;;;;27.15;12.25;;;;;;;0.30;85.40;98603.05;1638002;86;27383;-62
2022/12/21 06:59:30;;;;;;;28.67;13.00;;;;;;;0.33;85.39;98606.59;1589398;86;25714;-63
2022/12/21 07:01:56;;;;;;;27.30;13.48;;;;;;;0.35;85.45;98611.19;1590043;86;25425;-62
2022/12/21 07:04:22;;;;;;;31.33;13.62;;;;;;;0.36;85.44;98607.45;1637931;86;25753;-65
2022/12/21 07:06:49;;;;;;;32.50;13.72;;;;;;;0.39;85.42;98627.70;1616046;86;25850;-65
2022/12/21 07:09:15;;;;;;;39.13;16.12;;;;;;;0.37;85.44;98630.64;1594101;86;27487;-64
2022/12/21 07:11:42;;;;;;;32.05;14.03;;;;;;;0.37;85.45;98636.03;1610123;86;25498;-64
2022/12/21 07:14:08;;;;;;;30.05;14.20;;;;;;;0.37;85.39;98636.55;1616399;86;25730;-62
2022/12/21 07:16:35;;;;;;;40.90;16.45;;;;;;;0.36;85.38;98635.75;1638232;86;25735;-61
2022/12/21 07:19:01;;;;;;;32.45;14.55;;;;;;;0.37;85.43;98626.59;1615062;86;25524;-62
2022/12/21 07:21:28;;;;;;;35.83;14.30;;;;;;;0.40;85.44;98621.78;1639826;86;27488;-62
2022/12/21 07:23:55;;;;;;;34.55;14.50;;;;;;;0.40;85.47;98621.78;1616070;86;25664;-61
2022/12/21 07:26:23;;;;;;;37.25;14.60;;;;;;;0.41;85.42;98623.41;1639907;86;25490;-63
2022/12/21 07:28:50;;;;;;;30.92;14.63;;;;;;;0.45;85.46;98617.80;1638119;86;25764;-62
2022/12/21 07:31:20;;;;;;;28.98;12.65;;;;;;;0.47;85.38;98609.77;1616119;86;25709;-62
2022/12/21 07:33:47;;;;;;;28.40;13.20;;;;;;;0.48;85.31;98612.73;1638588;86;28162;-64
2022/12/21 07:36:15;;;;;;;29.25;13.10;;;;;;;0.49;85.36;98617.05;1638112;86;25761;-61
2022/12/21 07:38:42;;;;;;;30.95;13.90;;;;;;;0.51;85.39;98618.70;1594660;86;25703;-62
2022/12/21 07:41:13;;;;;;;35.05;13.62;;;;;;;0.52;85.40;98628.42;1601463;86;25760;-63
2022/12/21 07:43:40;;;;;;;22.62;10.25;;;;;;;0.52;85.46;98621.16;1616984;86;25535;-62
2022/12/21 07:46:07;;;;;;;29.95;12.93;;;;;;;0.50;85.62;98620.58;1615251;86;27384;-62
2022/12/21 07:48:34;;;;;;;25.60;12.47;;;;;;;0.50;85.70;98609.78;1616197;86;25796;-62
2022/12/21 07:51:02;;;;;;;32.67;13.75;;;;;;;0.54;85.81;98626.27;1594494;86;25522;-62
2022/12/21 07:53:29;;;;;;;30.60;13.85;;;;;;;0.57;85.93;98619.86;1638048;86;25699;-62
2022/12/21 07:56:05;;;;;;;25.82;12.30;;;;;;;0.61;85.92;98616.14;1638024;86;25794;-63
2022/12/21 07:58:31;;;;;;;27.22;11.85;;;;;;;0.66;85.88;98616.75;1602553;86;27326;-62
2022/12/21 08:01:10;;;;;;;29.05;11.95;;;;;;;0.70;85.87;98621.39;1656964;86;25661;-62
2022/12/21 08:03:38;;;;;;;25.43;12.50;;;;;;;0.73;85.78;98622.77;1616921;86;25496;-63
2022/12/21 08:06:06;;;;;;;26.10;12.43;;;;;;;0.77;85.78;98624.45;1637983;86;25773;-63
2022/12/21 08:08:34;;;;;;;21.82;10.40;;;;;;;0.80;85.70;98619.90;1638362;86;25667;-63
2022/12/21 08:11:01;;;;;;;23.92;11.00;;;;;;;0.79;85.55;98603.41;1637905;86;28323;-64
2022/12/21 08:13:29;;;;;;;27.50;12.15;;;;;;;0.75;85.56;98601.77;1637778;86;25811;-63
2022/12/21 08:16:04;;;;;;;24.45;11.93;;;;;;;0.78;85.65;98604.48;1616404;86;25714;-63
2022/12/21 08:18:32;;;;;;;32.08;12.13;;;;;;;0.82;85.63;98606.44;1617026;86;26303;-63
2022/12/21 08:20:59;;;;;;;30.37;12.45;;;;;;;0.86;85.54;98612.95;1638011;86;25782;-64
2022/12/21 08:23:25;;;;;;;32.98;14.55;;;;;;;0.90;85.54;98606.53;1601440;86;27507;-64
2022/12/21 08:25:51;;;;;;;25.80;12.47;;;;;;;0.96;85.48;98618.20;1637823;86;25716;-64
2022/12/21 08:28:18;;;;;;;21.87;10.30;;;;;;;1.04;85.37;98614.24;1616379;86;25541;-64
2022/12/21 08:30:46;;;;;;;28.50;13.25;;;;;;;1.08;85.12;98608.61;1617404;86;25712;-64
2022/12/21 08:33:13;;;;;;;27.25;12.70;;;;;;;1.09;85.11;98605.66;1589753;86;25530;-66
2022/12/21 08:35:44;;;;;;;28.02;12.70;;;;;;;1.10;85.05;98597.84;1638319;86;27488;-65
2022/12/21 08:38:10;;;;;;;;;;;;;;;1.12;84.95;98598.41;1640358;86;25526;-65
2022/12/21 08:40:36;;;;;;;24.18;11.55;;;;;;;1.13;84.80;98593.28;1660650;86;25685;-65
2022/12/21 08:43:03;;;;;;;24.63;10.50;;;;;;;1.17;84.71;98603.58;1617888;86;25785;-65
2022/12/21 08:45:29;;;;;;;30.92;11.57;;;;;;;1.22;84.70;98605.00;1637958;86;25516;-67
2022/12/21 08:47:56;;;;;;;23.85;11.33;;;;;;;1.24;84.32;98605.57;1638111;86;27595;-66
2022/12/21 08:50:22;;;;;;;18.62;9.05;;;;;;;1.27;84.29;98596.14;1660750;86;25688;-66
2022/12/21 08:52:48;;;;;;;25.45;11.50;;;;;;;1.29;84.19;98584.56;1610041;86;25539;-66
2022/12/21 08:55:15;;;;;;;30.10;13.48;;;;;;;1.29;84.29;98589.41;1594056;86;25763;-65
2022/12/21 08:57:41;;;;;;;22.98;11.05;;;;;;;1.33;84.38;98598.66;1618006;86;25518;-66
2022/12/21 09:00:10;;;;;;;26.33;11.50;;;;;;;1.37;84.17;98603.81;1589587;86;27349;-65
2022/12/21 09:02:36;;;;;;;28.38;12.68;;;;;;;1.37;84.15;98605.17;1610374;86;25785;-64
2022/12/21 09:05:04;;;;;;;25.77;11.40;;;;;;;1.41;84.08;98606.80;1610105;86;25714;-63
2022/12/21 09:07:30;;;;;;;24.70;10.80;;;;;;;1.41;83.85;98610.86;1638319;86;25906;-63
2022/12/21 09:09:57;;;;;;;27.40;10.93;;;;;;;1.42;83.77;98623.31;1616448;86;25712;-63
2022/12/21 09:12:23;;;;;;;26.70;12.65;;;;;;;1.42;83.66;98617.08;1638074;86;28252;-63
2022/12/21 09:14:50;;;;;;;23.80;11.50;;;;;;;1.41;83.62;98608.16;1612104;86;25770;-63
2022/12/21 09:17:16;;;;;;;29.10;13.78;;;;;;;1.44;83.58;98617.66;1637909;86;25660;-64
2022/12/21 09:19:42;;;;;;;15.80;7.70;;;;;;;1.45;83.43;98604.42;1660685;86;25728;-64
2022/12/21 09:22:09;;;;;;;27.77;12.45;;;;;;;1.42;83.18;98610.33;1615139;86;25702;-64
2022/12/21 09:24:35;;;;;;;35.20;16.97;;;;;;;1.36;83.32;98610.27;1637890;86;27184;-64
2022/12/21 09:27:02;;;;;;;26.30;14.23;;;;;;;1.37;83.41;98600.30;1637709;86;25719;-65
2022/12/21 09:29:29;;;;;;;26.25;13.25;;;;;;;1.38;83.38;98599.21;1594081;85;25722;-64
2022/12/21 09:31:55;;;;;;;26.82;12.43;;;;;;;1.40;83.42;98599.78;1610217;86;25580;-63
2022/12/21 09:34:41;;;;;;;34.55;17.85;;;;;;;1.42;83.41;98605.75;1638177;86;25473;-65
2022/12/21 09:37:08;;;;;;;23.90;12.78;;;;;;;1.41;83.23;98607.36;1666851;85;27318;-64
2022/12/21 09:39:34;;;;;;;27.05;11.60;;;;;;;1.44;83.52;98602.80;1666534;85;25519;-63
2022/12/21 09:42:34;;;;;;;24.85;11.80;;;;;;;1.42;83.37;98596.30;1666238;85;25511;-64
2022/12/21 09:45:34;;;;;;;26.93;13.43;;;;;;;1.38;83.55;98609.48;1672769;85;26550;-63
2022/12/21 09:48:05;;;;;;;35.75;14.75;;;;;;;1.38;83.75;98606.79;1688504;85;25473;-62
2022/12/21 09:50:39;;;;;;;33.48;13.68;;;;;;;1.43;83.87;98607.90;1688705;85;27357;-62
2022/12/21 09:53:21;;;;;;;28.00;13.80;;;;;;;1.46;83.61;98608.74;1672470;85;25938;-62
2022/12/21 09:55:52;;;;;;;134.22;41.08;;;;;;;1.46;83.59;98616.84;1636068;87;25628;-62
2022/12/21 09:58:23;;;;;;;529.30;163.10;;;;;;;1.46;83.49;98601.47;1613969;87;25778;-62
2022/12/21 10:00:54;;;;;;;184.55;69.15;;;;;;;1.49;83.61;98605.53;1635494;87;25508;-62
2022/12/21 10:03:50;;;;;;;251.70;78.10;;;;;;;1.52;83.62;98609.08;1635991;87;27248;-62
2022/12/21 10:06:47;;;;;;;93.78;31.10;;;;;;;1.49;83.57;98602.31;1635643;87;25754;-63
2022/12/21 10:09:30;;;;;;;97.72;26.02;;;;;;;1.47;83.56;98598.24;1635835;87;25839;-63
2022/12/21 10:12:29;;;;;;;159.75;35.50;;;;;;;1.47;83.76;98589.59;1613853;87;25752;-62
2022/12/21 10:15:26;;;;;;;119.37;29.12;;;;;;;1.48;83.71;98585.01;1609578;89;25708;-62
2022/12/21 10:18:22;;;;;;;75.12;21.95;;;;;;;1.49;83.68;98583.41;1609397;89;27606;-62
2022/12/21 10:21:13;;;;;;;96.25;25.97;;;;;;;1.54;83.52;98581.81;1609747;89;25793;-62
2022/12/21 10:23:47;;;;;;;77.27;21.25;;;;;;;1.57;83.61;98585.36;1556778;92;25906;-62
2022/12/21 10:26:21;;;;;;;65.37;19.25;;;;;;;1.56;83.58;98585.91;1556947;92;26566;-63
2022/12/21 10:28:55;;;;;;;66.15;19.17;;;;;;;1.60;83.74;98583.49;1557174;92;25823;-65
2022/12/21 10:31:44;;;;;;;60.15;19.98;;;;;;;1.61;83.49;98583.23;1554126;92;27479;-69
2022/12/21 10:34:27;;;;;;;40.80;14.10;;;;;;;1.59;83.56;98581.88;1547371;91;25866;-72
2022/12/21 10:36:58;;;;;;;79.97;23.62;;;;;;;1.59;83.59;98575.13;1544566;91;25585;-83
2022/12/21 10:39:27;;;;;;;;;;;;;;;1.59;83.61;98567.84;1528085;91;25645;-79
2022/12/21 10:42:24;;;;;;;79.82;22.32;;;;;;;1.60;83.40;98553.78;1544286;91;25701;-80
2022/12/21 10:45:01;;;;;;;66.33;19.85;;;;;;;1.63;83.40;98545.16;1564021;91;27540;-79
2022/12/21 10:47:28;;;;;;;70.28;21.00;;;;;;;1.67;83.27;98537.37;1543786;91;25512;-78
2022/12/21 10:50:24;;;;;;;71.10;20.60;;;;;;;1.69;82.95;98536.03;1505065;91;25665;-77
2022/12/21 10:52:53;;;;;;;65.30;19.73;;;;;;;1.73;83.19;98533.08;1584228;90;26742;-73
2022/12/21 10:55:29;;;;;;;37.05;14.35;;;;;;;1.77;83.05;98537.45;1539815;90;25894;-69
2022/12/21 10:58:02;;;;;;;90.87;26.45;;;;;;;1.78;82.88;98534.22;1584102;90;27151;-70
2022/12/21 11:00:39;;;;;;;124.82;31.90;;;;;;;1.80;82.89;98535.58;1589791;85;25919;-75
2022/12/21 11:03:27;;;;;;;51.77;17.55;;;;;;;1.84;82.82;98541.29;1666491;85;25620;-79
2022/12/21 11:05:53;;;;;;;47.65;16.67;;;;;;;1.85;82.54;98531.58;1666543;85;25869;-80
2022/12/21 11:08:32;;;;;;;32.30;13.80;;;;;;;1.82;82.48;98526.69;1666633;85;25724;-73
2022/12/21 11:11:04;;;;;;;52.23;18.10;;;;;;;1.84;82.53;98526.43;1643836;85;28334;-75
2022/12/21 11:13:32;;;;;;;44.98;16.90;;;;;;;1.82;82.56;98518.58;1666282;85;25632;-77
2022/12/21 11:16:06;;;;;;;33.50;14.15;;;;;;;1.81;82.53;98519.63;1666687;85;25697;-77
2022/12/21 11:18:46;;;;;;;75.70;23.67;;;;;;;1.80;82.79;98517.19;1666125;85;25808;-80
2022/12/21 11:21:36;;;;;;;55.10;19.05;;;;;;;1.79;82.86;98516.39;1666539;85;25718;-74
2022/12/21 11:24:32;;;;;;;73.75;22.93;;;;;;;1.74;82.97;98515.82;1684560;84;27446;-74
2022/12/21 11:27:03;;;;;;;46.05;16.20;;;;;;;1.69;83.22;98525.22;1684135;84;25688;-79
2022/12/21 11:29:47;;;;;;;48.60;17.40;;;;;;;1.65;83.46;98513.31;1682485;84;25690;-77
2022/12/21 11:32:15;;;;;;;91.25;26.17;;;;;;;1.63;83.68;98511.39;1666288;85;26677;-74
2022/12/21 11:34:53;;;;;;;47.17;18.35;;;;;;;1.62;83.92;98507.08;1689825;84;25731;-75
2022/12/21 11:37:45;;;;;;;35.52;15.72;;;;;;;1.62;83.93;98495.72;1650041;85;27315;-81
2022/12/21 11:40:16;;;;;;;79.80;24.23;;;;;;;1.60;84.09;98509.21;1688352;85;25737;-82
2022/12/21 11:43:03;;;;;;;84.72;26.25;;;;;;;1.59;84.22;98515.17;1643715;85;25698;-76
2022/12/21 11:46:02;;;;;;;94.92;28.35;;;;;;;1.58;84.42;98520.27;1688035;85;25768;-79
2022/12/21 11:48:54;;;;;;;53.08;19.40;;;;;;;1.57;84.58;98517.83;1688379;84;25663;-73
2022/12/21 11:51:42;;;;;;;46.48;18.80;;;;;;;1.52;84.68;98511.05;1672212;85;27547;-73
2022/12/21 11:54:17;;;;;;;60.10;20.15;;;;;;;1.47;84.83;98507.22;1666237;85;25496;-72
2022/12/21 11:57:07;;;;;;;50.65;18.98;;;;;;;1.44;84.89;98511.78;1689152;84;25735;-74
2022/12/21 12:00:12;;;;;;;71.62;25.20;;;;;;;1.43;84.97;98507.98;1688383;84;25761;-71